Time;durP1;ratioP1;P1;durP2;ratioP2;P2;SDS_P1;SDS_P2;PMS_P1;PMS_P2;Temp;Humidity;BMP_temperature;BMP_pressure;BME280_temperature;BME280_humidity;BME280_pressure;Samples;Min_cycle;Max_cycle;Signal;HPM_P1;HPM_P2
2023/09/18 00:00:12;;;;;;;9.48;8.10;;;20.70;98.00;;;;;;10504253;28;20401;-69
2023/09/18 00:05:15;;;;;;;9.38;8.27;;;20.70;98.00;;;;;;10497635;28;20764;-68
2023/09/18 00:10:16;;;;;;;10.23;8.52;;;20.70;98.00;;;;;;10491748;28;20487;-68
2023/09/18 00:15:16;;;;;;;9.45;8.13;;;20.70;98.00;;;;;;10504094;28;20408;-68
2023/09/18 00:20:18;;;;;;;10.20;8.38;;;20.60;97.90;;;;;;10492091;28;20921;-69
2023/09/18 00:25:19;;;;;;;10.05;8.48;;;20.60;97.90;;;;;;10500832;28;20474;-68
2023/09/18 00:30:19;;;;;;;9.83;8.23;;;20.70;97.90;;;;;;10506528;28;20550;-69
2023/09/18 00:35:22;;;;;;;10.65;9.07;;;20.60;97.90;;;;;;10502653;28;20413;-68
2023/09/18 00:40:22;;;;;;;9.07;8.02;;;20.60;97.80;;;;;;10501071;28;20417;-69
2023/09/18 00:45:23;;;;;;;9.90;8.55;;;21.20;98.00;;;;;;10508101;28;20883;-69
2023/09/18 00:50:24;;;;;;;10.02;8.32;;;20.60;97.80;;;;;;10507087;28;20490;-69
2023/09/18 00:55:25;;;;;;;10.27;8.40;;;20.60;97.80;;;;;;10502461;28;20415;-69
2023/09/18 01:00:25;;;;;;;10.07;8.20;;;20.60;97.70;;;;;;10500901;28;20951;-69
2023/09/18 01:05:26;;;;;;;9.53;8.17;;;20.60;97.70;;;;;;10508131;28;20421;-69
2023/09/18 01:10:55;;;;;;;10.73;8.40;;;20.20;97.60;;;;;;10507824;28;21518;-69
2023/09/18 01:16:04;;;;;;;9.97;8.50;;;20.60;97.70;;;;;;10488826;28;20402;-69
2023/09/18 01:21:05;;;;;;;9.32;8.13;;;20.50;97.70;;;;;;10498845;28;20453;-69
2023/09/18 01:26:06;;;;;;;10.40;8.30;;;20.60;97.70;;;;;;10496798;28;20491;-69
2023/09/18 01:31:07;;;;;;;9.60;8.60;;;20.60;97.60;;;;;;10497539;28;20398;-68
2023/09/18 01:36:08;;;;;;;10.67;8.83;;;20.60;97.60;;;;;;10492344;28;20410;-69
2023/09/18 01:41:09;;;;;;;9.27;8.23;;;20.60;97.60;;;;;;10499816;28;20410;-69
2023/09/18 01:46:10;;;;;;;11.10;8.88;;;20.50;97.60;;;;;;10498567;28;20394;-69
2023/09/18 01:51:14;;;;;;;9.80;8.50;;;20.50;97.60;;;;;;10493626;28;20497;-69
2023/09/18 01:56:17;;;;;;;10.55;8.93;;;20.50;97.50;;;;;;10497415;28;20413;-68
2023/09/18 02:01:17;;;;;;;10.45;9.18;;;21.10;97.70;;;;;;10502660;28;20409;-69
2023/09/18 02:06:18;;;;;;;11.05;8.90;;;20.50;97.80;;;;;;10483300;28;20401;-69
2023/09/18 02:11:18;;;;;;;10.77;9.25;;;20.60;97.50;;;;;;10499991;28;20962;-69
2023/09/18 02:16:23;;;;;;;11.00;9.47;;;20.50;97.50;;;;;;10489467;28;20398;-69
2023/09/18 02:21:25;;;;;;;10.50;9.05;;;20.50;97.50;;;;;;10491129;28;20643;-69
2023/09/18 02:26:26;;;;;;;11.18;9.10;;;20.50;97.50;;;;;;10501070;28;20396;-69
2023/09/18 02:31:27;;;;;;;9.85;8.57;;;20.50;97.50;;;;;;10507926;28;20827;-69
2023/09/18 02:36:28;;;;;;;10.82;8.77;;;20.50;97.50;;;;;;10504201;28;20421;-69
2023/09/18 02:41:28;;;;;;;11.80;9.48;;;20.50;97.50;;;;;;10497364;28;20407;-69
2023/09/18 02:46:29;;;;;;;11.25;9.45;;;20.50;97.40;;;;;;10493739;28;20402;-69
2023/09/18 02:51:31;;;;;;;10.45;9.25;;;20.50;97.40;;;;;;10505498;28;20721;-69
2023/09/18 02:56:32;;;;;;;11.43;9.63;;;20.50;97.40;;;;;;10497664;28;20502;-69
2023/09/18 03:01:33;;;;;;;9.93;8.90;;;20.50;97.40;;;;;;10504551;28;20582;-68
2023/09/18 03:06:33;;;;;;;11.10;9.68;;;20.40;97.40;;;;;;10499260;28;20395;-69
2023/09/18 03:11:34;;;;;;;11.30;9.60;;;20.50;97.50;;;;;;10499989;28;20578;-69
2023/09/18 03:16:34;;;;;;;10.95;9.15;;;20.50;97.40;;;;;;10496228;28;20419;-69
2023/09/18 03:21:35;;;;;;;10.52;9.30;;;20.40;97.40;;;;;;10504680;28;20425;-68
2023/09/18 03:26:36;;;;;;;13.20;10.10;;;20.50;97.40;;;;;;10508877;28;20986;-69
2023/09/18 03:31:36;;;;;;;12.77;10.10;;;20.40;97.40;;;;;;10496921;28;20437;-69
2023/09/18 03:36:38;;;;;;;11.82;10.52;;;20.50;97.40;;;;;;10509119;28;20414;-69
2023/09/18 03:41:39;;;;;;;11.33;9.70;;;20.40;97.30;;;;;;10503534;28;20428;-69
2023/09/18 03:46:40;;;;;;;12.83;9.90;;;20.40;97.30;;;;;;10510782;28;20764;-69
2023/09/18 03:51:40;;;;;;;11.10;10.00;;;20.40;97.30;;;;;;10500454;28;20445;-69
2023/09/18 03:56:41;;;;;;;11.57;9.80;;;20.40;97.30;;;;;;10503081;28;20500;-68
2023/09/18 04:01:41;;;;;;;11.10;9.90;;;20.40;97.30;;;;;;10501385;28;20419;-69
2023/09/18 04:06:43;;;;;;;11.27;9.73;;;20.40;97.30;;;;;;10511713;28;20400;-69
2023/09/18 04:11:44;;;;;;;10.88;9.77;;;20.40;97.40;;;;;;10500196;28;20393;-69
2023/09/18 04:16:45;;;;;;;12.13;10.23;;;20.40;97.40;;;;;;10501543;28;20412;-69
2023/09/18 04:21:45;;;;;;;12.20;10.48;;;20.40;97.40;;;;;;10499524;28;20414;-69
2023/09/18 04:26:46;;;;;;;11.52;10.32;;;20.40;97.30;;;;;;10506064;28;20408;-69
2023/09/18 04:31:48;;;;;;;12.80;10.40;;;20.40;97.40;;;;;;10506657;28;20399;-69
2023/09/18 04:36:48;;;;;;;12.77;10.68;;;20.40;97.30;;;;;;10506756;28;20421;-69
2023/09/18 04:41:49;;;;;;;12.80;11.07;;;20.40;97.30;;;;;;10501144;28;20413;-69
2023/09/18 04:46:49;;;;;;;13.03;11.07;;;20.40;97.30;;;;;;10505090;28;20765;-69
2023/09/18 04:51:50;;;;;;;12.80;11.03;;;20.40;97.30;;;;;;10512137;28;20394;-69
2023/09/18 04:56:50;;;;;;;14.57;12.50;;;20.40;97.30;;;;;;10505809;28;20577;-69
2023/09/18 05:01:51;;;;;;;13.57;11.20;;;20.40;97.40;;;;;;10504220;28;20465;-69
2023/09/18 05:06:52;;;;;;;12.53;11.10;;;20.40;97.40;;;;;;10493166;28;20448;-68
2023/09/18 05:11:52;;;;;;;12.70;11.10;;;20.40;97.30;;;;;;10503156;28;20407;-69
2023/09/18 05:16:53;;;;;;;16.10;13.57;;;20.40;97.30;;;;;;10497663;28;20586;-69
2023/09/18 05:21:53;;;;;;;12.97;11.50;;;20.40;97.30;;;;;;10497514;28;20409;-69
2023/09/18 05:26:54;;;;;;;14.47;12.00;;;20.40;97.30;;;;;;10509389;28;20398;-69
2023/09/18 05:31:55;;;;;;;13.70;11.57;;;20.40;97.30;;;;;;10508034;28;20500;-68
2023/09/18 05:36:55;;;;;;;12.93;11.30;;;20.40;97.60;;;;;;10505562;28;20845;-69
2023/09/18 05:41:56;;;;;;;17.20;14.43;;;20.40;97.30;;;;;;10505610;28;20406;-68
2023/09/18 05:46:56;;;;;;;12.67;11.23;;;20.40;97.30;;;;;;10502543;28;20406;-69
2023/09/18 05:51:57;;;;;;;14.00;11.57;;;20.50;97.30;;;;;;10514590;28;20770;-69
2023/09/18 05:56:58;;;;;;;13.33;11.30;;;20.40;97.30;;;;;;10503205;28;20407;-69
2023/09/18 06:01:58;;;;;;;15.00;11.87;;;20.40;97.30;;;;;;10466518;28;21109;-69
2023/09/18 06:06:59;;;;;;;15.03;12.70;;;20.40;97.30;;;;;;10481879;28;20403;-69
2023/09/18 06:12:00;;;;;;;13.30;11.70;;;20.50;97.30;;;;;;10484156;28;20410;-68
2023/09/18 06:17:01;;;;;;;13.77;12.27;;;20.40;97.30;;;;;;10468323;28;20408;-69
2023/09/18 06:22:02;;;;;;;15.77;12.57;;;20.40;97.30;;;;;;10469992;28;20718;-69
2023/09/18 06:27:06;;;;;;;13.33;11.63;;;20.30;97.30;;;;;;10484312;28;20398;-69
2023/09/18 06:32:07;;;;;;;14.50;12.57;;;20.40;97.30;;;;;;10483196;28;20469;-68
2023/09/18 06:37:08;;;;;;;14.00;11.63;;;20.40;97.50;;;;;;10485282;28;20411;-67
2023/09/18 06:42:09;;;;;;;13.57;11.70;;;20.40;97.30;;;;;;10474764;28;20488;-68
2023/09/18 06:47:09;;;;;;;13.57;11.63;;;20.40;97.20;;;;;;10473907;28;20423;-68
2023/09/18 06:52:10;;;;;;;13.20;11.37;;;20.40;97.20;;;;;;10478969;28;21113;-68
2023/09/18 06:57:11;;;;;;;13.53;12.10;;;20.40;97.30;;;;;;10485382;28;20404;-68
2023/09/18 07:02:14;;;;;;;14.87;12.60;;;20.40;97.30;;;;;;10478339;28;20403;-68
2023/09/18 07:07:15;;;;;;;16.92;12.95;;;20.40;97.30;;;;;;10487397;28;20409;-68
2023/09/18 07:12:19;;;;;;;15.02;13.02;;;20.40;97.30;;;;;;10483483;28;20411;-68
2023/09/18 07:17:19;;;;;;;14.47;12.90;;;20.50;97.30;;;;;;10480391;28;20841;-68
2023/09/18 07:22:20;;;;;;;16.17;13.30;;;20.50;97.30;;;;;;10478771;28;20463;-68
2023/09/18 07:27:21;;;;;;;15.53;13.27;;;20.40;97.30;;;;;;10489119;28;20396;-68
2023/09/18 07:32:21;;;;;;;15.67;13.33;;;20.50;97.40;;;;;;10490241;28;20453;-68
2023/09/18 07:37:22;;;;;;;15.73;12.80;;;20.50;97.40;;;;;;10483866;28;20794;-68
2023/09/18 07:42:26;;;;;;;15.07;12.90;;;20.40;97.30;;;;;;10489909;28;20613;-67
2023/09/18 07:47:26;;;;;;;15.10;13.10;;;20.50;97.30;;;;;;10498972;28;20394;-68
2023/09/18 07:52:29;;;;;;;16.97;13.47;;;20.50;97.30;;;;;;10492641;28;20390;-70
2023/09/18 07:57:31;;;;;;;16.30;13.23;;;20.50;97.40;;;;;;10500682;28;20764;-71
2023/09/18 08:02:32;;;;;;;16.70;12.77;;;20.50;97.50;;;;;;10502583;28;20496;-71
2023/09/18 08:07:33;;;;;;;14.87;12.47;;;20.50;97.50;;;;;;10496638;28;20400;-67
2023/09/18 08:12:34;;;;;;;15.15;12.60;;;20.50;97.60;;;;;;10491179;28;20768;-67
2023/09/18 08:17:35;;;;;;;13.47;11.73;;;20.70;97.60;;;;;;10485562;28;20489;-69
2023/09/18 08:22:35;;;;;;;14.67;12.33;;;20.60;97.60;;;;;;10492812;28;20409;-70
2023/09/18 08:27:43;;;;;;;13.90;11.57;;;20.60;97.70;;;;;;10489763;28;20404;-69
2023/09/18 08:32:45;;;;;;;14.23;11.82;;;20.60;97.70;;;;;;10488637;28;20821;-68
2023/09/18 08:37:45;;;;;;;13.70;11.32;;;20.60;97.80;;;;;;10501232;28;20679;-68
2023/09/18 08:42:47;;;;;;;13.57;11.23;;;20.60;97.80;;;;;;10495636;28;20457;-68
2023/09/18 08:47:51;;;;;;;12.82;11.05;;;20.60;97.80;;;;;;10497710;28;20468;-69
2023/09/18 08:52:52;;;;;;;14.10;11.20;;;20.60;97.90;;;;;;10495595;28;20400;-68
2023/09/18 08:57:54;;;;;;;13.90;11.48;;;20.60;97.90;;;;;;10497212;28;20903;-68
2023/09/18 09:02:55;;;;;;;14.32;11.20;;;20.60;98.20;;;;;;10489132;28;20935;-67
2023/09/18 09:07:56;;;;;;;13.27;10.83;;;20.60;98.00;;;;;;10494833;28;20408;-69
2023/09/18 09:12:58;;;;;;;12.48;10.80;;;20.70;98.00;;;;;;10492776;28;20934;-68
2023/09/18 09:18:05;;;;;;;12.47;10.57;;;20.70;98.00;;;;;;10480019;28;20849;-68
2023/09/18 09:23:08;;;;;;;13.50;10.87;;;20.70;98.00;;;;;;10502060;28;20426;-68
2023/09/18 09:28:09;;;;;;;12.93;10.80;;;20.80;98.10;;;;;;10488203;28;20851;-68
2023/09/18 09:33:12;;;;;;;12.13;9.80;;;20.80;98.10;;;;;;10486366;28;20494;-68
2023/09/18 09:38:16;;;;;;;12.57;10.50;;;20.80;98.20;;;;;;10488910;28;20526;-68
2023/09/18 09:43:18;;;;;;;12.35;9.93;;;20.80;98.10;;;;;;10494620;28;20416;-68
2023/09/18 09:48:20;;;;;;;11.48;9.60;;;20.90;98.10;;;;;;10490066;28;20745;-69
2023/09/18 09:53:41;;;;;;;12.80;9.88;;;20.90;98.10;;;;;;10490819;28;20408;-68
2023/09/18 09:58:43;;;;;;;12.32;9.63;;;20.90;98.10;;;;;;10490579;28;20398;-69
2023/09/18 10:03:46;;;;;;;12.73;9.52;;;21.00;98.10;;;;;;10483287;28;20427;-69
2023/09/18 10:08:47;;;;;;;12.45;9.73;;;21.00;98.10;;;;;;10492069;28;20398;-68
2023/09/18 10:14:00;;;;;;;9.77;8.43;;;21.10;98.10;;;;;;10490340;28;20765;-69
2023/09/18 10:19:23;;;;;;;10.23;8.68;;;21.10;98.20;;;;;;10483142;28;20398;-69
2023/09/18 10:24:25;;;;;;;9.85;8.18;;;21.10;98.20;;;;;;10486463;28;20510;-69
2023/09/18 10:29:26;;;;;;;12.05;8.13;;;21.20;98.20;;;;;;10485933;28;20405;-69
2023/09/18 10:34:30;;;;;;;9.23;7.57;;;21.20;98.20;;;;;;10495069;28;20441;-69
2023/09/18 10:39:34;;;;;;;9.75;8.13;;;21.30;98.10;;;;;;10486818;28;20454;-69
2023/09/18 10:44:35;;;;;;;9.47;7.63;;;21.30;98.10;;;;;;10486472;28;20425;-70
2023/09/18 10:49:36;;;;;;;9.33;8.27;;;21.50;98.20;;;;;;10488787;28;20833;-69
2023/09/18 10:54:38;;;;;;;8.80;7.90;;;21.40;98.10;;;;;;10482759;28;20473;-69
2023/09/18 10:59:45;;;;;;;9.60;7.70;;;21.40;98.10;;;;;;10488033;28;20463;-69
2023/09/18 11:04:47;;;;;;;8.52;7.60;;;21.40;98.10;;;;;;10488983;28;20935;-69
2023/09/18 11:09:48;;;;;;;8.43;7.30;;;21.40;98.10;;;;;;10492431;28;20386;-69
2023/09/18 11:14:56;;;;;;;8.38;7.05;;;21.40;98.10;;;;;;10486783;28;20875;-68
2023/09/18 11:20:13;;;;;;;8.25;7.10;;;21.40;98.20;;;;;;10484752;28;20958;-69
2023/09/18 11:25:37;;;;;;;8.48;7.22;;;21.40;98.20;;;;;;10502167;28;20511;-70
2023/09/18 11:30:47;;;;;;;8.82;7.20;;;21.40;98.50;;;;;;10500161;28;20438;-70
2023/09/18 11:35:52;;;;;;;8.70;7.20;;;21.40;98.20;;;;;;10489810;28;20926;-69
2023/09/18 11:40:53;;;;;;;10.05;7.00;;;21.40;98.20;;;;;;10498105;28;20821;-69
2023/09/18 11:45:56;;;;;;;8.13;7.13;;;21.50;98.30;;;;;;10496248;28;20397;-70
2023/09/18 11:50:59;;;;;;;7.90;6.63;;;21.50;98.20;;;;;;10497907;28;20394;-70
2023/09/18 11:56:00;;;;;;;8.73;6.78;;;21.60;98.10;;;;;;10492581;28;20405;-69
2023/09/18 12:01:12;;;;;;;7.50;6.50;;;21.60;98.10;;;;;;10498666;28;20416;-69
2023/09/18 12:06:13;;;;;;;7.20;6.38;;;21.70;98.00;;;;;;10494608;28;20400;-69
2023/09/18 12:11:16;;;;;;;7.22;6.53;;;21.80;97.90;;;;;;10495547;28;20392;-69
2023/09/18 12:16:18;;;;;;;8.40;6.25;;;21.80;97.80;;;;;;10491534;28;20449;-68
2023/09/18 12:21:20;;;;;;;8.32;6.70;;;21.80;97.80;;;;;;10482581;28;20411;-69
2023/09/18 12:26:20;;;;;;;6.72;6.10;;;21.90;97.90;;;;;;10487794;28;20409;-70
2023/09/18 12:31:21;;;;;;;8.05;6.40;;;21.90;97.90;;;;;;10496235;28;20458;-70
2023/09/18 12:36:21;;;;;;;8.75;6.20;;;22.00;97.80;;;;;;10491335;28;20490;-69
2023/09/18 12:41:24;;;;;;;8.73;6.23;;;22.10;97.80;;;;;;10498786;28;20418;-70
2023/09/18 12:46:26;;;;;;;7.40;5.90;;;22.10;97.70;;;;;;10498974;28;20402;-70
2023/09/18 12:51:31;;;;;;;7.20;6.03;;;22.10;97.60;;;;;;10502110;28;20979;-70
2023/09/18 12:56:32;;;;;;;7.30;6.10;;;22.10;97.50;;;;;;10497116;28;20500;-70
2023/09/18 13:01:33;;;;;;;7.53;5.60;;;22.10;97.40;;;;;;10497964;28;20838;-69
2023/09/18 13:06:33;;;;;;;6.77;5.50;;;22.20;97.40;;;;;;10490437;28;20386;-73
2023/09/18 13:11:52;;;;;;;5.97;5.37;;;22.20;97.40;;;;;;10493475;28;20546;-69
2023/09/18 13:16:53;;;;;;;6.95;5.30;;;22.20;97.40;;;;;;10492099;28;20399;-70
2023/09/18 13:21:54;;;;;;;7.28;5.60;;;22.30;97.20;;;;;;10487180;28;20405;-68
2023/09/18 13:26:56;;;;;;;6.30;5.30;;;22.20;97.10;;;;;;10492092;28;20772;-69
2023/09/18 13:31:57;;;;;;;9.07;5.97;;;22.30;97.20;;;;;;10489878;28;20842;-70
2023/09/18 13:36:57;;;;;;;6.50;5.30;;;22.30;97.10;;;;;;10480830;28;20502;-70
2023/09/18 13:41:58;;;;;;;7.07;5.90;;;22.30;97.10;;;;;;10495427;28;20796;-71
2023/09/18 13:46:59;;;;;;;7.33;5.67;;;21.80;96.90;;;;;;10493601;28;20390;-71
2023/09/18 13:52:00;;;;;;;6.95;5.72;;;22.40;97.00;;;;;;10495547;28;20434;-69
2023/09/18 13:57:04;;;;;;;8.45;5.80;;;22.40;96.80;;;;;;10498313;28;20502;-71
2023/09/18 14:02:05;;;;;;;6.18;4.68;;;22.60;96.80;;;;;;10497773;28;20413;-71
2023/09/18 14:07:07;;;;;;;5.87;4.00;;;22.70;96.20;;;;;;10498963;28;20412;-71
2023/09/18 14:12:08;;;;;;;6.68;4.10;;;23.00;95.30;;;;;;10497051;28;20489;-71
2023/09/18 14:17:10;;;;;;;6.32;3.97;;;23.30;94.60;;;;;;10487385;28;20396;-72
2023/09/18 14:22:11;;;;;;;6.00;3.83;;;23.40;94.10;;;;;;10481346;28;20925;-71
2023/09/18 14:27:12;;;;;;;6.40;4.23;;;23.30;93.30;;;;;;10488804;28;20394;-71
2023/09/18 14:32:12;;;;;;;5.97;3.90;;;23.60;93.50;;;;;;10486928;28;20478;-71
2023/09/18 14:37:14;;;;;;;6.47;3.80;;;23.80;92.80;;;;;;10492205;28;20403;-71
2023/09/18 14:42:14;;;;;;;7.72;3.50;;;23.80;92.60;;;;;;10493378;28;20484;-70
2023/09/18 14:47:16;;;;;;;5.90;3.55;;;23.90;91.80;;;;;;10489148;28;20397;-71
2023/09/18 14:52:18;;;;;;;3.92;3.08;;;24.00;91.40;;;;;;10492004;28;20489;-71
2023/09/18 14:57:19;;;;;;;6.22;3.30;;;24.10;91.30;;;;;;10494330;28;20407;-71
2023/09/18 15:02:20;;;;;;;8.87;3.40;;;24.20;91.50;;;;;;10494509;28;20423;-70
2023/09/18 15:07:20;;;;;;;6.47;3.20;;;24.20;91.40;;;;;;10496022;28;20411;-71
2023/09/18 15:12:22;;;;;;;4.27;2.90;;;24.20;91.60;;;;;;10500525;28;20415;-71
2023/09/18 15:17:23;;;;;;;4.40;2.70;;;24.00;91.60;;;;;;10483648;28;20721;-72
2023/09/18 15:22:25;;;;;;;4.00;2.70;;;23.80;91.50;;;;;;10496649;28;20806;-70
2023/09/18 15:27:25;;;;;;;4.77;2.47;;;23.60;91.80;;;;;;10491477;28;20425;-71
2023/09/18 15:32:26;;;;;;;4.27;2.17;;;23.50;91.80;;;;;;10489489;28;21004;-73
2023/09/18 15:37:32;;;;;;;5.40;2.70;;;23.30;91.80;;;;;;10489808;28;20415;-69
2023/09/18 15:42:32;;;;;;;5.73;2.83;;;23.30;92.10;;;;;;10492265;28;20406;-69
2023/09/18 15:47:33;;;;;;;3.70;2.73;;;23.30;92.20;;;;;;10499330;28;20488;-70
2023/09/18 15:52:34;;;;;;;5.60;2.60;;;23.30;92.50;;;;;;10496461;28;20398;-68
2023/09/18 15:57:38;;;;;;;4.95;2.85;;;23.30;92.60;;;;;;10500477;28;20402;-69
2023/09/18 16:02:41;;;;;;;4.13;2.60;;;23.30;92.80;;;;;;10486891;28;20404;-69
2023/09/18 16:07:44;;;;;;;4.18;2.80;;;23.30;92.90;;;;;;10492955;28;20479;-68
2023/09/18 16:12:45;;;;;;;4.10;2.65;;;23.20;93.10;;;;;;10501586;28;20472;-68
2023/09/18 16:17:45;;;;;;;4.40;3.00;;;23.20;93.20;;;;;;10491406;28;20404;-68
2023/09/18 16:22:46;;;;;;;4.40;3.05;;;23.20;93.30;;;;;;10499855;28;20592;-69
2023/09/18 16:27:47;;;;;;;4.85;3.42;;;23.20;93.50;;;;;;10493457;28;20408;-69
2023/09/18 16:32:48;;;;;;;5.13;3.10;;;23.10;93.80;;;;;;10501403;28;20687;-68
2023/09/18 16:37:48;;;;;;;6.43;4.30;;;23.00;93.90;;;;;;10494374;28;20525;-69
2023/09/18 16:42:49;;;;;;;4.82;3.15;;;23.00;93.90;;;;;;10500454;28;20422;-68
2023/09/18 16:47:53;;;;;;;3.60;3.20;;;22.90;94.00;;;;;;10499533;28;20939;-69
2023/09/18 16:52:53;;;;;;;4.15;2.97;;;22.90;94.10;;;;;;10501376;28;20857;-66
2023/09/18 16:57:55;;;;;;;4.53;2.80;;;22.80;94.20;;;;;;10497368;28;20400;-68
2023/09/18 17:02:56;;;;;;;3.57;2.90;;;22.80;94.30;;;;;;10491331;28;20522;-67
2023/09/18 17:07:56;;;;;;;3.85;2.55;;;22.70;94.40;;;;;;10496999;28;20390;-67
2023/09/18 17:12:57;;;;;;;3.88;3.00;;;22.70;94.50;;;;;;10496801;28;20394;-67
2023/09/18 17:18:00;;;;;;;3.97;3.20;;;22.60;94.50;;;;;;10500685;28;20450;-67
2023/09/18 17:23:00;;;;;;;3.38;2.70;;;22.60;94.70;;;;;;10501830;28;20721;-66
2023/09/18 17:28:04;;;;;;;4.10;2.80;;;22.60;94.80;;;;;;10493134;28;20812;-69
2023/09/18 17:33:05;;;;;;;5.20;3.33;;;22.50;94.70;;;;;;10497977;28;20402;-67
2023/09/18 17:38:05;;;;;;;3.87;2.93;;;22.50;94.80;;;;;;10491425;28;20398;-67
2023/09/18 17:43:07;;;;;;;4.87;2.57;;;22.50;94.90;;;;;;10505132;28;20416;-66
2023/09/18 17:48:08;;;;;;;3.08;2.70;;;22.40;94.80;;;;;;10499168;28;20897;-67
2023/09/18 17:53:09;;;;;;;3.08;2.50;;;22.40;94.80;;;;;;10498998;28;20404;-66
2023/09/18 17:58:10;;;;;;;4.07;3.53;;;22.40;94.80;;;;;;10490496;28;20419;-67
2023/09/18 18:03:12;;;;;;;3.13;2.50;;;22.40;94.90;;;;;;10473709;28;20502;-67
2023/09/18 18:08:13;;;;;;;4.63;2.60;;;22.30;94.80;;;;;;10492571;28;20706;-67
2023/09/18 18:13:14;;;;;;;3.55;2.58;;;22.30;94.80;;;;;;10493137;28;20441;-68
2023/09/18 18:18:14;;;;;;;3.88;2.45;;;22.30;94.80;;;;;;10480082;28;20441;-67
2023/09/18 18:23:22;;;;;;;4.10;2.90;;;22.20;94.80;;;;;;10488764;28;20433;-67
2023/09/18 18:28:23;;;;;;;3.87;2.87;;;22.20;94.90;;;;;;10484136;28;20406;-67
2023/09/18 18:33:23;;;;;;;3.50;2.47;;;22.20;94.90;;;;;;10494845;28;20409;-68
2023/09/18 18:38:24;;;;;;;4.20;2.90;;;22.10;94.80;;;;;;10476090;28;20434;-67
2023/09/18 18:43:25;;;;;;;4.13;2.60;;;22.10;94.80;;;;;;10502153;28;20419;-67
2023/09/18 18:48:27;;;;;;;4.50;3.13;;;22.10;94.90;;;;;;10499742;28;20401;-68
2023/09/18 18:53:29;;;;;;;3.55;2.50;;;22.00;94.90;;;;;;10494191;28;20419;-67
2023/09/18 18:58:31;;;;;;;3.00;2.37;;;22.00;94.90;;;;;;10492971;28;20487;-67
2023/09/18 19:03:39;;;;;;;3.47;2.78;;;22.00;95.00;;;;;;10489835;28;20406;-67
2023/09/18 19:08:40;;;;;;;4.07;2.75;;;22.00;95.00;;;;;;10493946;28;20482;-67
2023/09/18 19:13:43;;;;;;;4.30;2.90;;;21.90;95.00;;;;;;10493056;28;20404;-67
2023/09/18 19:18:44;;;;;;;3.35;2.40;;;21.90;95.00;;;;;;10494550;28;20396;-67
2023/09/18 19:23:46;;;;;;;3.13;2.63;;;21.90;95.10;;;;;;10483449;28;20423;-68
2023/09/18 19:28:47;;;;;;;4.40;3.03;;;21.80;95.10;;;;;;10488599;28;20404;-67
2023/09/18 19:33:48;;;;;;;4.07;2.88;;;21.80;95.10;;;;;;10490581;28;20416;-67
2023/09/18 19:38:50;;;;;;;4.10;3.17;;;21.80;95.20;;;;;;10488956;28;20420;-68
2023/09/18 19:43:51;;;;;;;4.10;3.00;;;21.80;95.30;;;;;;10494488;28;20465;-67
2023/09/18 19:48:51;;;;;;;3.93;3.30;;;21.70;95.30;;;;;;10498951;28;20457;-67
2023/09/18 19:53:53;;;;;;;5.97;2.53;;;21.70;95.30;;;;;;10493918;28;20422;-66
2023/09/18 19:58:53;;;;;;;3.90;2.78;;;21.70;95.30;;;;;;10496436;28;20395;-67
2023/09/18 20:03:54;;;;;;;4.37;2.83;;;21.80;95.30;;;;;;10487333;28;20411;-66
2023/09/18 20:08:56;;;;;;;3.67;2.70;;;21.70;95.30;;;;;;10491695;28;20770;-66
2023/09/18 20:13:57;;;;;;;4.90;3.17;;;21.60;95.30;;;;;;10492632;28;20509;-66
2023/09/18 20:18:58;;;;;;;4.85;2.97;;;21.60;95.40;;;;;;10497710;28;20956;-67
2023/09/18 20:23:59;;;;;;;5.40;3.07;;;21.60;95.50;;;;;;10494903;28;20452;-66
2023/09/18 20:28:59;;;;;;;4.73;2.83;;;21.50;95.50;;;;;;10492986;28;20397;-67
2023/09/18 20:34:00;;;;;;;4.30;2.97;;;21.50;95.50;;;;;;10489909;28;20417;-67
2023/09/18 20:39:03;;;;;;;3.63;2.83;;;21.50;95.50;;;;;;10493353;28;20499;-67
2023/09/18 20:44:04;;;;;;;6.95;3.03;;;21.50;95.60;;;;;;10492990;28;20399;-67
2023/09/18 20:49:05;;;;;;;4.35;2.88;;;21.50;95.60;;;;;;10489428;28;20681;-67
2023/09/18 20:54:06;;;;;;;6.50;3.50;;;21.50;95.60;;;;;;10488819;28;20397;-67
2023/09/18 20:59:06;;;;;;;4.47;2.90;;;21.40;95.50;;;;;;10494016;28;20409;-67
2023/09/18 21:04:07;;;;;;;4.90;3.20;;;21.40;95.50;;;;;;10490893;28;20408;-66
2023/09/18 21:09:11;;;;;;;5.27;3.03;;;21.40;95.60;;;;;;10490713;28;20853;-67
2023/09/18 21:14:12;;;;;;;4.83;3.00;;;21.50;95.60;;;;;;10488482;28;20408;-66
2023/09/18 21:19:19;;;;;;;4.47;2.92;;;21.40;95.60;;;;;;10484076;28;20920;-66
2023/09/18 21:24:20;;;;;;;4.90;2.75;;;21.30;95.90;;;;;;10485037;28;20424;-66
2023/09/18 21:29:25;;;;;;;6.15;3.10;;;21.30;95.60;;;;;;10489764;28;20411;-66
2023/09/18 21:34:26;;;;;;;5.57;3.08;;;21.30;95.70;;;;;;10491870;28;21390;-66
2023/09/18 21:39:26;;;;;;;5.37;3.17;;;21.30;95.70;;;;;;10489176;28;20443;-67
2023/09/18 21:44:27;;;;;;;5.33;3.00;;;21.20;95.80;;;;;;10499799;28;20413;-66
2023/09/18 21:49:28;;;;;;;5.53;3.10;;;21.20;95.70;;;;;;10498240;28;20402;-66
2023/09/18 21:54:28;;;;;;;6.10;2.80;;;21.10;95.70;;;;;;10499889;28;20498;-66
2023/09/18 21:59:29;;;;;;;4.70;3.10;;;21.20;95.70;;;;;;10495665;28;20410;-67
2023/09/18 22:04:29;;;;;;;5.53;2.87;;;21.10;95.70;;;;;;10486813;28;20423;-66
2023/09/18 22:09:33;;;;;;;5.18;2.60;;;21.10;95.70;;;;;;10484934;28;20461;-66
2023/09/18 22:14:34;;;;;;;5.73;2.93;;;21.10;95.70;;;;;;10494605;28;20739;-67
2023/09/18 22:19:34;;;;;;;5.13;2.90;;;21.10;95.70;;;;;;10493736;28;20957;-67
2023/09/18 22:24:35;;;;;;;5.60;2.60;;;21.10;95.70;;;;;;10487300;28;20585;-67
2023/09/18 22:29:35;;;;;;;4.30;2.65;;;21.10;95.90;;;;;;10494688;28;20394;-67
2023/09/18 22:34:39;;;;;;;4.65;2.60;;;21.00;95.60;;;;;;10489284;28;20415;-67
2023/09/18 22:39:54;;;;;;;4.75;2.60;;;21.00;95.60;;;;;;10494376;28;20406;-68
2023/09/18 22:45:32;;;;;;;5.80;2.47;;;21.00;95.50;;;;;;10491179;28;20415;-67
2023/09/18 22:51:13;;;;;;;3.80;2.60;;;20.90;95.50;;;;;;10499188;28;20396;-67
2023/09/18 22:56:16;;;;;;;3.45;2.20;;;20.90;95.50;;;;;;10493863;28;20402;-67
2023/09/18 23:01:17;;;;;;;4.45;2.30;;;20.90;95.50;;;;;;10497951;28;20434;-66
2023/09/18 23:06:18;;;;;;;4.22;2.30;;;20.80;95.40;;;;;;10497240;28;20873;-66
2023/09/18 23:11:18;;;;;;;3.58;2.40;;;20.80;95.30;;;;;;10497403;28;20400;-67
2023/09/18 23:16:22;;;;;;;4.20;2.40;;;20.80;95.30;;;;;;10504810;28;20402;-67
2023/09/18 23:21:23;;;;;;;5.37;2.57;;;20.80;95.30;;;;;;10493299;28;20567;-66
2023/09/18 23:26:25;;;;;;;3.25;2.15;;;20.70;95.30;;;;;;10506835;28;20468;-67
2023/09/18 23:31:25;;;;;;;4.45;2.38;;;20.70;95.20;;;;;;10512027;28;20458;-67
2023/09/18 23:36:27;;;;;;;4.07;2.17;;;20.70;95.10;;;;;;10514684;28;20538;-67
2023/09/18 23:41:28;;;;;;;4.65;2.17;;;20.70;95.20;;;;;;10513656;28;20486;-67
2023/09/18 23:46:31;;;;;;;3.60;2.03;;;20.60;95.20;;;;;;10522957;28;20395;-66
2023/09/18 23:51:32;;;;;;;4.97;2.20;;;20.60;95.20;;;;;;10510545;28;20398;-67
2023/09/18 23:56:34;;;;;;;3.70;2.27;;;20.60;95.50;;;;;;10505866;28;20450;-67
